Dario Colombo

Chief Scout - Benevento
16 Apr 2028
Sunday
Process

Personality

Adaptability (8) Ambition (4) Controversy (7) Loyalty (7) Pressure (18) Professionalism (12) Sportsmanship (15) Temperament (7)

Profile

Coaching Style Democratic
License National B
Determination 9
Man Management 6
Motivating 6
Discipline 6
Job Satisfaction
100%
Fatigue
0%
Role Chief Scout
Wage 22.7K p/w
Contract 14.03.2030

Performance

Behaviour Good
Training Effectiveness
44%
Player Development
40%
Injury Prevention
35%
Tactical Implementation
45%

Recent Events

Attended a recruitment meeting now
Recommended a transfer target now
Recommended a transfer target 7d ago
Attended a recruitment meeting 7d ago
Attended a recruitment meeting 7d ago
Assessed a player 7d ago
Assessed a player 7d ago
Assessed a player 7d ago

Currently Monitoring

131
Player Club Status Ability Confidence Watched Last Observed Latest Vote
Francesco Ruocco Mantova Active 124 / 118 40% 1 08.04.2028 -
Thomas Battistella Trapani Active 110 / 124 40% 1 08.04.2028 -
Seb Palmer-Houlden Gillingham Active 99 / 103 40% 1 07.04.2028 -
Gabe Forsyth Colchester United Active 104 / 113 40% 1 07.04.2028 -
Simone Ianesi Pianese Active 115 / 108 40% 2 05.04.2028 -
Rubin Colwill Chesterfield Active 121 / 123 40% 2 05.04.2028 -
Giovanni Corradini Ascoli Active 116 / 117 40% 2 03.04.2028 -
Christos Kourfalidis Renate Active 100 / 114 40% 1 01.04.2028 -
Alessandro Pellitteri Campobasso Active 106 / 111 40% 1 01.04.2028 -
Amar Memić Viktoria Plzen Active 147 / 127 40% 4 31.03.2028 -
Alberto Lunghi Torres Active 99 / 104 40% 1 31.03.2028 -
Taylor Allen Wycombe Wanderers Active 108 / 108 40% 2 30.03.2028 -
Freddi Greco Monopoli Active 105 / 111 40% 1 30.03.2028 -
John Mercado Sparta Prague Active 117 / 131 40% 5 29.03.2028 -
Riccardo Ladinetti Pontedera Active 116 / 111 40% 1 29.03.2028 -
Emircan Gürlük Orenburg Active 107 / 118 40% 2 23.03.2028 -
Matthew Smith Accrington Stanley Active 119 / 115 40% 1 23.03.2028 -
Fabio Cariolato Arzignano Active 118 / 109 40% 1 20.03.2028 -
Carmine Cretella Audace Cerignola Active 98 / 104 40% 1 20.03.2028 -
Luca Schirone Pineto Active 118 / 106 40% 1 19.03.2028 -
Giovanni Volpe Audace Cerignola Active 110 / 105 40% 3 18.03.2028 -
Calum Kavanagh Oldham Athletic Active 108 / 104 40% 1 18.03.2028 -
Marino Illescas Ceuta Active 113 / 106 40% 2 17.03.2028 -
Andile Furman Platinum Stars Active 92 / 110 40% 1 17.03.2028 -
Gabriele Pagliai Ascoli Active 110 / 111 40% 1 16.03.2028 -
Lorenzo Maasland Casarano Active 109 / 105 40% 2 12.03.2028 -
Jacopo Desogus AlbinoLeffe Active 105 / 112 40% 1 12.03.2028 -
Baldovino Cimino Cosenza Active 122 / 117 40% 1 11.03.2028 -
Connor Barrett Walsall Active 109 / 114 40% 1 11.03.2028 -
Malcolm Ebiowei Gillingham Active 109 / 102 40% 1 09.03.2028 -
Gabriel Pellegrino Lecco Active 100 / 114 40% 1 09.03.2028 -
Mikhail Ignatov Sochi Active 111 / 113 40% 1 08.03.2028 -
Makan Aïko Tondela Active 119 / 123 40% 1 08.03.2028 -
Liam Bennett Cambridge United Active 120 / 105 40% 1 07.03.2028 -
Saxon Earley Accrington Stanley Active 104 / 107 40% 1 06.03.2028 -
Luca Mazzeo Picerno Active 100 / 106 40% 1 06.03.2028 -
Zech Medley Fleetwood Town Active 108 / 105 40% 1 04.03.2028 -
Pablo Vitali Pontedera Active 102 / 108 40% 2 02.03.2028 -
Christian Pierobon Salernitana Active 120 / 125 40% 1 01.03.2028 -
Raphael Kofler Südtirol Active 120 / 121 40% 1 01.03.2028 -
Kevin Bright Alcione Milano Active 103 / 103 40% 1 29.02.2028 -
Samuel Giovane Catanzaro Active 125 / 125 40% 1 27.02.2028 -
James Furlong Walsall Active 113 / 119 40% 1 25.02.2028 -
Enes Calhanoglu Tskhinvali Active 92 / 108 40% 6 24.02.2028 -
Rodrigo Benítez Tranmere Rovers Active 91 / 95 40% 1 24.02.2028 -
Miloš Brnović Arsenal Tula Active 122 / 115 40% 1 23.02.2028 -
Simone Zanon Carrarese Active 115 / 121 40% 1 22.02.2028 -
Jack Vale Sorrento Active 106 / 96 40% 1 19.02.2028 -
Francesco Petito Dolomiti Bellunesi Active 111 / 109 40% 1 18.02.2028 -
Luca Chierico Arezzo Active 124 / 108 40% 1 16.02.2028 -
Samuele Regazzetti Livorno Active 98 / 103 40% 1 16.02.2028 -
Mathías Tomás Puebla Active 120 / 115 40% 1 14.02.2028 -
Andrea Bonetti Renate Active 102 / 115 40% 1 14.02.2028 -
Guillaume Furrer Lecco Active 111 / 110 40% 2 11.02.2028 -
Justin Haak LA Galaxy Active 127 / 111 40% 2 09.02.2028 -
Alessandro Seghetti Campobasso Active 109 / 113 40% 1 05.02.2028 -
Owen Gene Minnesota United FC Active 125 / 124 40% 2 04.02.2028 -
Guljigit Alykulov Dinamo Minsk Active 118 / 96 40% 3 04.02.2028 -
Matteo Maggio Reggiana Active 114 / 119 40% 1 03.02.2028 -
Gustavo Viera Cerro Largo Active 97 / 107 40% 3 01.02.2028 -
David Boateng Cobresal Rejected 95 / 95 66% 1 01.01.2028 Reject
Kwame Opoku Veres Rejected 98 / 98 66% 1 01.01.2028 Reject
Dillon Hoogewerf Radnicki 1923 Rejected 99 / 102 66% 1 01.01.2028 Reject
Andrea Bottaro Virtus Entella Active 90 / 102 58% 1 01.01.2028 Approve
Jonathan Okoronkwo Torpedo Moscow Active 113 / 105 40% 1 31.12.2027 -
Facundo Taborda Racing Active 115 / 114 40% 1 29.12.2027 -
Ignacio Vallejos Colegiales Active 99 / 110 40% 4 28.12.2027 -
Yegor Kortsov Dinamo Brest Active 123 / 106 40% 1 28.12.2027 -
Santiago Valenzuela Chaco For Ever Active 97 / 120 40% 2 27.12.2027 -
Sebastián Parada San Luis Active 112 / 88 40% 1 27.12.2027 -
Victor Hernandez Santa Fe Active 115 / 122 40% 2 26.12.2027 -
Fernando Martínez Central Córdoba SdE Active 111 / 123 40% 4 25.12.2027 Monitor
Joantony Carmona Dinamo Minsk Active 105 / 97 40% 2 25.12.2027 -
Patrick Yazbek Nashville SC Active 127 / 116 40% 3 24.12.2027 -
Santiago Corbo Miramar Misiones Active 109 / 114 40% 1 24.12.2027 Needs More Info
Mauricio González Sporting Kansas City Active 108 / 128 40% 1 22.12.2027 -
Santiago Patroni Defensores Unidos Active 100 / 116 40% 2 21.12.2027 -
Daniel Barrea Godoy Cruz Active 119 / 120 40% 3 20.12.2027 -
Christopher Richards Enyimba Active 96 / 98 40% 2 16.12.2027 -
Augustine Nwaorisa Enyimba Active 75 / 95 40% 1 16.12.2027 -
Hernest Malonga Kenya Police Active 90 / 94 40% 1 13.12.2027 -
Fabián Suárez Chalares Aguilas Doradas Active 115 / 123 40% 4 12.12.2027 -
Tomás Ramírez Morón Active 102 / 126 40% 3 10.12.2027 -
Sebastián Ramírez Aguilas Doradas Active 120 / 103 40% 1 10.12.2027 -
Franco Hanashiro Colegiales Active 117 / 110 40% 2 08.12.2027 -
Gonzalo Gutiérrez San Martín Active 109 / 94 40% 3 05.12.2027 -
Joaquín Valiente FC Dallas Active 129 / 119 40% 1 03.12.2027 -
Yeferson Rodallega Envigado Active 101 / 122 40% 1 30.11.2027 -
Didier Dawson Envigado Active 113 / 109 40% 2 29.11.2027 -
Juan David Rueda Alianza Petrolera Active 101 / 105 40% 4 28.11.2027 -
Willy Kumado San Diego Football Club Active 104 / 107 40% 2 27.11.2027 -
Ghali Falke Shooting Stars Active 97 / 105 40% 2 26.11.2027 -
Joseph Atule Barau Active 79 / 89 40% 1 25.11.2027 -
Tosin Olawale El-Kanemi Warriors Active 80 / 88 40% 2 22.11.2027 -
Valentin Pereyra Patronato Active 119 / 103 40% 2 20.11.2027 -
Axel Encinas Union La Calera Active 99 / 98 40% 2 16.11.2027 -
Luis Chávez Smorgon Active 81 / 84 40% 1 14.11.2027 -
Francisco Perruzzi Aldosivi Active 97 / 113 40% 1 12.11.2027 -
Chimobi Igwilo Rangers International Active 85 / 98 40% 1 10.11.2027 -
Daniel Bassi Lillestrom Active 120 / 120 40% 2 07.11.2027 -
Facundo Altamira Godoy Cruz Active 138 / 131 40% 3 05.11.2027 -
Agustín De la Cuesta Racing Active 95 / 108 40% 1 04.11.2027 -
Juan Esteban Ávalo Aguilas Doradas Active 126 / 105 40% 1 03.11.2027 -
Santiago Martínez Godoy Cruz Active 128 / 127 40% 1 02.11.2027 -
Adam Mustapha Shooting Stars Active 74 / 84 40% 1 01.11.2027 -
Francisco Maidana Gimnasia y Esgrima Active 120 / 106 40% 1 29.10.2027 -
John Valladares Santiago Wanderers Active 82 / 98 40% 1 23.10.2027 -
Matías Arias Vélez Active 101 / 123 40% 3 17.10.2027 -
Joel Ezra Enyimba Active 81 / 107 40% 1 11.10.2027 -
Francisco Funes Los Andes Active 96 / 104 40% 1 05.10.2027 -
Amza Moubarack Bandari Active 79 / 93 40% 1 01.10.2027 -
Ifeanyi Assurance Rangers International Active 87 / 103 40% 1 27.09.2027 -
Andrés Gigena San Marcos de Arica Active 107 / 100 40% 1 24.09.2027 -
Alfred Mazurich Lida Active 100 / 84 40% 1 21.09.2027 -
Diego Vásquez Agropecuario Argentino Active 117 / 105 40% 1 20.09.2027 -
Ovella Ochieng KCB Active 98 / 82 40% 1 20.09.2027 -
Zakaria Ajoughlal Renaissance Active 101 / 94 40% 1 18.09.2027 -
Youssef Dalouzi Renaissance Active 83 / 89 40% 1 14.09.2027 -
Jonathan Baeza La Luz Active 103 / 96 40% 1 12.09.2027 -
Gabriel Rincon Atletico Venezuela Active 99 / 99 40% 1 07.09.2027 -
Agustín Maidana San Marcos de Arica Active 94 / 111 40% 1 07.09.2027 -
Enock Morrison Gor Mahia Active 100 / 94 40% 1 31.08.2027 -
Job Ochieng Real Sociedad Active 100 / 119 40% 1 02.08.2027 -
Luca Moro Padova Active 119 / 128 40% 1 02.08.2027 -
Bernat Guiu Virtus Entella Active 122 / 110 40% 1 26.07.2027 -
Albion Rrahmani Venezia Active 124 / 137 40% 1 19.07.2027 -
Stiven Shpendi Empoli Active 132 / 130 40% 2 13.07.2027 -
Matteo Francesconi Cesena Active 134 / 132 40% 1 22.06.2027 -
Samuel Asamoah Racing Rejected 104 / 110 66% 1 01.06.2027 Reject
Ali Sobhi Al Ahly Rejected 104 / 105 66% 1 01.06.2027 Reject
Idrissa Touré Monza Active 143 / 140 40% 1 01.08.2026 -